Terminal Aerodrome Forecast
Issued by NWS Charleston, WV

Current Version | Previous Version | Graphics & Text | Print | Product List | Glossary On
Versions: 1 2 3 4 5 6 7 8 9 10 11 12 13 14 15 16 17 18 19 20 21 22 23 24
000
FTUS41 KRLX 192329
TAFBKW
TAF
KBKW 192329Z 2000/2024 23005KT P6SM SKC
     FM200900 23007KT P6SM FEW015
     FM201000 23007KT P6SM OVC011=

USA.gov is the U.S. government's official web portal to all federal, state and local government web resources and services.